sensor_id;sensor_type;location;lat;lon;timestamp;temperature;humidity
69731;SHT31;56996;48.138;11.538;2023-02-04T00:00:12;5.86;79.14
69731;SHT31;56996;48.138;11.538;2023-02-04T00:02:43;5.84;79.43
69731;SHT31;56996;48.138;11.538;2023-02-04T00:05:10;5.78;80.00
69731;SHT31;56996;48.138;11.538;2023-02-04T00:07:38;5.79;79.51
69731;SHT31;56996;48.138;11.538;2023-02-04T00:10:07;5.82;79.57
69731;SHT31;56996;48.138;11.538;2023-02-04T00:12:35;5.84;79.69
69731;SHT31;56996;48.138;11.538;2023-02-04T00:15:02;5.85;79.74
69731;SHT31;56996;48.138;11.538;2023-02-04T00:17:30;5.86;79.99
69731;SHT31;56996;48.138;11.538;2023-02-04T00:19:57;5.82;80.06
69731;SHT31;56996;48.138;11.538;2023-02-04T00:22:23;5.82;79.87
69731;SHT31;56996;48.138;11.538;2023-02-04T00:24:51;5.79;80.23
69731;SHT31;56996;48.138;11.538;2023-02-04T00:27:18;5.76;80.79
69731;SHT31;56996;48.138;11.538;2023-02-04T00:29:45;5.74;80.68
69731;SHT31;56996;48.138;11.538;2023-02-04T00:32:12;5.76;80.51
69731;SHT31;56996;48.138;11.538;2023-02-04T00:34:38;5.79;80.56
69731;SHT31;56996;48.138;11.538;2023-02-04T00:37:05;5.80;80.41
69731;SHT31;56996;48.138;11.538;2023-02-04T00:39:32;5.84;80.36
69731;SHT31;56996;48.138;11.538;2023-02-04T00:41:59;5.82;80.43
69731;SHT31;56996;48.138;11.538;2023-02-04T00:44:25;5.82;80.52
69731;SHT31;56996;48.138;11.538;2023-02-04T00:46:52;5.82;80.81
69731;SHT31;56996;48.138;11.538;2023-02-04T00:49:19;5.81;80.77
69731;SHT31;56996;48.138;11.538;2023-02-04T00:51:45;5.80;80.69
69731;SHT31;56996;48.138;11.538;2023-02-04T00:54:12;5.82;80.72
69731;SHT31;56996;48.138;11.538;2023-02-04T00:56:41;5.83;80.71
69731;SHT31;56996;48.138;11.538;2023-02-04T00:59:09;5.86;80.80
69731;SHT31;56996;48.138;11.538;2023-02-04T01:01:36;5.85;80.92
69731;SHT31;56996;48.138;11.538;2023-02-04T01:04:03;5.80;80.89
69731;SHT31;56996;48.138;11.538;2023-02-04T01:06:30;5.82;80.92
69731;SHT31;56996;48.138;11.538;2023-02-04T01:08:57;5.83;80.85
69731;SHT31;56996;48.138;11.538;2023-02-04T01:11:24;5.81;80.85
69731;SHT31;56996;48.138;11.538;2023-02-04T01:13:51;5.80;81.07
69731;SHT31;56996;48.138;11.538;2023-02-04T01:16:17;5.78;80.97
69731;SHT31;56996;48.138;11.538;2023-02-04T01:18:44;5.77;80.79
69731;SHT31;56996;48.138;11.538;2023-02-04T01:21:11;5.79;80.78
69731;SHT31;56996;48.138;11.538;2023-02-04T01:23:38;5.79;81.05
69731;SHT31;56996;48.138;11.538;2023-02-04T01:26:06;5.77;80.79
69731;SHT31;56996;48.138;11.538;2023-02-04T01:28:33;5.79;80.77
69731;SHT31;56996;48.138;11.538;2023-02-04T01:30:59;5.78;81.09
69731;SHT31;56996;48.138;11.538;2023-02-04T01:33:26;5.75;81.02
69731;SHT31;56996;48.138;11.538;2023-02-04T01:35:53;5.76;80.78
69731;SHT31;56996;48.138;11.538;2023-02-04T01:38:20;5.77;80.78
69731;SHT31;56996;48.138;11.538;2023-02-04T01:40:46;5.78;80.58
69731;SHT31;56996;48.138;11.538;2023-02-04T01:43:13;5.80;80.45
69731;SHT31;56996;48.138;11.538;2023-02-04T01:45:40;5.77;80.59
69731;SHT31;56996;48.138;11.538;2023-02-04T01:48:07;5.74;80.44
69731;SHT31;56996;48.138;11.538;2023-02-04T01:50:35;5.74;80.45
69731;SHT31;56996;48.138;11.538;2023-02-04T01:53:02;5.74;80.45
69731;SHT31;56996;48.138;11.538;2023-02-04T01:55:31;5.74;80.35
69731;SHT31;56996;48.138;11.538;2023-02-04T01:57:59;5.76;80.60
69731;SHT31;56996;48.138;11.538;2023-02-04T02:00:31;5.74;80.83
69731;SHT31;56996;48.138;11.538;2023-02-04T02:02:59;5.76;80.65
69731;SHT31;56996;48.138;11.538;2023-02-04T02:05:26;5.78;80.38
69731;SHT31;56996;48.138;11.538;2023-02-04T02:08:04;5.80;80.49
69731;SHT31;56996;48.138;11.538;2023-02-04T02:10:32;5.82;80.30
69731;SHT31;56996;48.138;11.538;2023-02-04T02:13:00;5.84;80.25
69731;SHT31;56996;48.138;11.538;2023-02-04T02:15:28;5.87;80.18
69731;SHT31;56996;48.138;11.538;2023-02-04T02:17:55;5.87;80.36
69731;SHT31;56996;48.138;11.538;2023-02-04T02:20:23;5.86;80.48
69731;SHT31;56996;48.138;11.538;2023-02-04T02:25:58;5.84;80.92
69731;SHT31;56996;48.138;11.538;2023-02-04T02:28:24;5.83;80.81
69731;SHT31;56996;48.138;11.538;2023-02-04T02:30:51;5.84;81.09
69731;SHT31;56996;48.138;11.538;2023-02-04T02:33:18;5.85;81.14
69731;SHT31;56996;48.138;11.538;2023-02-04T02:35:46;5.83;81.07
69731;SHT31;56996;48.138;11.538;2023-02-04T02:38:14;5.84;81.45
69731;SHT31;56996;48.138;11.538;2023-02-04T02:40:43;5.83;81.38
69731;SHT31;56996;48.138;11.538;2023-02-04T02:43:12;5.80;81.52
69731;SHT31;56996;48.138;11.538;2023-02-04T02:45:43;5.79;81.42
69731;SHT31;56996;48.138;11.538;2023-02-04T02:48:10;5.78;81.15
69731;SHT31;56996;48.138;11.538;2023-02-04T02:50:37;5.77;81.31
69731;SHT31;56996;48.138;11.538;2023-02-04T02:53:09;5.74;81.31
69731;SHT31;56996;48.138;11.538;2023-02-04T02:55:39;5.69;81.36
69731;SHT31;56996;48.138;11.538;2023-02-04T02:58:11;5.64;81.59
69731;SHT31;56996;48.138;11.538;2023-02-04T03:00:45;5.61;81.24
69731;SHT31;56996;48.138;11.538;2023-02-04T03:03:14;5.62;81.06
69731;SHT31;56996;48.138;11.538;2023-02-04T03:05:50;5.59;81.30
69731;SHT31;56996;48.138;11.538;2023-02-04T03:08:23;5.54;81.27
69731;SHT31;56996;48.138;11.538;2023-02-04T03:10:49;5.51;81.17
69731;SHT31;56996;48.138;11.538;2023-02-04T03:13:16;5.48;81.00
69731;SHT31;56996;48.138;11.538;2023-02-04T03:15:45;5.46;80.78
69731;SHT31;56996;48.138;11.538;2023-02-04T03:18:13;5.44;80.59
69731;SHT31;56996;48.138;11.538;2023-02-04T03:20:43;5.43;80.47
69731;SHT31;56996;48.138;11.538;2023-02-04T03:23:11;5.42;80.33
69731;SHT31;56996;48.138;11.538;2023-02-04T03:25:39;5.40;80.14
69731;SHT31;56996;48.138;11.538;2023-02-04T03:28:06;5.39;80.03
69731;SHT31;56996;48.138;11.538;2023-02-04T03:30:32;5.36;80.15
69731;SHT31;56996;48.138;11.538;2023-02-04T03:32:59;5.34;80.08
69731;SHT31;56996;48.138;11.538;2023-02-04T03:35:26;5.34;80.02
69731;SHT31;56996;48.138;11.538;2023-02-04T03:37:52;5.32;80.13
69731;SHT31;56996;48.138;11.538;2023-02-04T03:40:19;5.34;80.31
69731;SHT31;56996;48.138;11.538;2023-02-04T03:42:46;5.33;80.29
69731;SHT31;56996;48.138;11.538;2023-02-04T03:45:12;5.34;80.42
69731;SHT31;56996;48.138;11.538;2023-02-04T03:47:39;5.35;80.44
69731;SHT31;56996;48.138;11.538;2023-02-04T03:50:06;5.35;80.55
69731;SHT31;56996;48.138;11.538;2023-02-04T03:52:33;5.35;80.35
69731;SHT31;56996;48.138;11.538;2023-02-04T03:54:59;5.35;80.33
69731;SHT31;56996;48.138;11.538;2023-02-04T03:57:26;5.34;80.07
69731;SHT31;56996;48.138;11.538;2023-02-04T03:59:52;5.36;79.91
69731;SHT31;56996;48.138;11.538;2023-02-04T04:02:19;5.37;79.76
69731;SHT31;56996;48.138;11.538;2023-02-04T04:04:46;5.36;79.49
69731;SHT31;56996;48.138;11.538;2023-02-04T04:07:12;5.35;79.15
69731;SHT31;56996;48.138;11.538;2023-02-04T04:09:39;5.35;78.88
69731;SHT31;56996;48.138;11.538;2023-02-04T04:12:05;5.36;78.77
69731;SHT31;56996;48.138;11.538;2023-02-04T04:14:32;5.36;78.62
69731;SHT31;56996;48.138;11.538;2023-02-04T04:16:59;5.35;78.54
69731;SHT31;56996;48.138;11.538;2023-02-04T04:19:25;5.33;78.37
69731;SHT31;56996;48.138;11.538;2023-02-04T04:21:52;5.31;78.36
69731;SHT31;56996;48.138;11.538;2023-02-04T04:24:19;5.26;78.44
69731;SHT31;56996;48.138;11.538;2023-02-04T04:26:45;5.24;78.41
69731;SHT31;56996;48.138;11.538;2023-02-04T04:29:12;5.16;78.21
69731;SHT31;56996;48.138;11.538;2023-02-04T04:31:38;5.11;78.22
69731;SHT31;56996;48.138;11.538;2023-02-04T04:34:05;5.05;78.22
69731;SHT31;56996;48.138;11.538;2023-02-04T04:36:32;4.99;78.01
69731;SHT31;56996;48.138;11.538;2023-02-04T04:38:58;4.94;77.82
69731;SHT31;56996;48.138;11.538;2023-02-04T04:41:25;4.88;77.88
69731;SHT31;56996;48.138;11.538;2023-02-04T04:43:51;4.85;77.84
69731;SHT31;56996;48.138;11.538;2023-02-04T04:46:18;4.82;77.89
69731;SHT31;56996;48.138;11.538;2023-02-04T04:48:45;4.79;77.79
69731;SHT31;56996;48.138;11.538;2023-02-04T04:51:12;4.75;77.72
69731;SHT31;56996;48.138;11.538;2023-02-04T04:53:38;4.71;77.63
69731;SHT31;56996;48.138;11.538;2023-02-04T04:56:05;4.68;77.55
69731;SHT31;56996;48.138;11.538;2023-02-04T04:58:32;4.66;77.56
69731;SHT31;56996;48.138;11.538;2023-02-04T05:00:58;4.63;77.55
69731;SHT31;56996;48.138;11.538;2023-02-04T05:03:25;4.61;77.50
69731;SHT31;56996;48.138;11.538;2023-02-04T05:05:52;4.58;77.57
69731;SHT31;56996;48.138;11.538;2023-02-04T05:08:19;4.55;77.46
69731;SHT31;56996;48.138;11.538;2023-02-04T05:10:46;4.53;77.39
69731;SHT31;56996;48.138;11.538;2023-02-04T05:13:12;4.51;77.44
69731;SHT31;56996;48.138;11.538;2023-02-04T05:15:39;4.50;77.41
69731;SHT31;56996;48.138;11.538;2023-02-04T05:18:06;4.50;77.37
69731;SHT31;56996;48.138;11.538;2023-02-04T05:20:32;4.50;77.32
69731;SHT31;56996;48.138;11.538;2023-02-04T05:23:00;4.50;77.36
69731;SHT31;56996;48.138;11.538;2023-02-04T05:25:27;4.50;77.31
69731;SHT31;56996;48.138;11.538;2023-02-04T05:27:54;4.50;77.29
69731;SHT31;56996;48.138;11.538;2023-02-04T05:30:21;4.50;77.09
69731;SHT31;56996;48.138;11.538;2023-02-04T05:32:47;4.50;77.08
69731;SHT31;56996;48.138;11.538;2023-02-04T05:35:14;4.51;76.94
69731;SHT31;56996;48.138;11.538;2023-02-04T05:37:41;4.53;76.73
69731;SHT31;56996;48.138;11.538;2023-02-04T05:40:08;4.58;76.47
69731;SHT31;56996;48.138;11.538;2023-02-04T05:42:35;4.60;76.36
69731;SHT31;56996;48.138;11.538;2023-02-04T05:45:02;4.64;76.31
69731;SHT31;56996;48.138;11.538;2023-02-04T05:47:30;4.64;76.30
69731;SHT31;56996;48.138;11.538;2023-02-04T05:49:56;4.66;76.34
69731;SHT31;56996;48.138;11.538;2023-02-04T05:52:23;4.68;76.36
69731;SHT31;56996;48.138;11.538;2023-02-04T05:54:50;4.71;76.33
69731;SHT31;56996;48.138;11.538;2023-02-04T05:57:17;4.73;76.05
69731;SHT31;56996;48.138;11.538;2023-02-04T05:59:43;4.73;76.08
69731;SHT31;56996;48.138;11.538;2023-02-04T06:02:10;4.77;76.17
69731;SHT31;56996;48.138;11.538;2023-02-04T06:04:37;4.79;76.14
69731;SHT31;56996;48.138;11.538;2023-02-04T06:07:04;4.79;76.34
69731;SHT31;56996;48.138;11.538;2023-02-04T06:09:30;4.80;76.57
69731;SHT31;56996;48.138;11.538;2023-02-04T06:11:57;4.79;76.68
69731;SHT31;56996;48.138;11.538;2023-02-04T06:14:23;4.80;76.84
69731;SHT31;56996;48.138;11.538;2023-02-04T06:16:50;4.80;77.07
69731;SHT31;56996;48.138;11.538;2023-02-04T06:19:17;4.83;77.16
69731;SHT31;56996;48.138;11.538;2023-02-04T06:21:43;4.83;77.21
69731;SHT31;56996;48.138;11.538;2023-02-04T06:24:10;4.84;77.26
69731;SHT31;56996;48.138;11.538;2023-02-04T06:26:37;4.85;77.31
69731;SHT31;56996;48.138;11.538;2023-02-04T06:29:03;4.87;77.33
69731;SHT31;56996;48.138;11.538;2023-02-04T06:31:30;4.91;77.33
69731;SHT31;56996;48.138;11.538;2023-02-04T06:33:57;4.94;77.30
69731;SHT31;56996;48.138;11.538;2023-02-04T06:36:24;4.98;77.38
69731;SHT31;56996;48.138;11.538;2023-02-04T06:38:50;5.04;77.35
69731;SHT31;56996;48.138;11.538;2023-02-04T06:41:17;5.06;77.24
69731;SHT31;56996;48.138;11.538;2023-02-04T06:43:44;5.12;77.29
69731;SHT31;56996;48.138;11.538;2023-02-04T06:46:10;5.15;77.17
69731;SHT31;56996;48.138;11.538;2023-02-04T06:48:37;5.16;76.96
69731;SHT31;56996;48.138;11.538;2023-02-04T06:51:04;5.17;76.76
69731;SHT31;56996;48.138;11.538;2023-02-04T06:53:31;5.18;76.57
69731;SHT31;56996;48.138;11.538;2023-02-04T06:55:57;5.18;76.49
69731;SHT31;56996;48.138;11.538;2023-02-04T06:58:24;5.14;76.00
69731;SHT31;56996;48.138;11.538;2023-02-04T07:00:50;5.10;75.90
69731;SHT31;56996;48.138;11.538;2023-02-04T07:03:17;5.07;75.84
69731;SHT31;56996;48.138;11.538;2023-02-04T07:05:43;5.06;75.94
69731;SHT31;56996;48.138;11.538;2023-02-04T07:08:10;5.07;75.77
69731;SHT31;56996;48.138;11.538;2023-02-04T07:10:37;5.07;75.57
69731;SHT31;56996;48.138;11.538;2023-02-04T07:13:03;5.04;75.15
69731;SHT31;56996;48.138;11.538;2023-02-04T07:15:30;5.02;75.41
69731;SHT31;56996;48.138;11.538;2023-02-04T07:17:57;5.03;75.27
69731;SHT31;56996;48.138;11.538;2023-02-04T07:20:23;5.02;75.18
69731;SHT31;56996;48.138;11.538;2023-02-04T07:22:50;5.01;74.93
69731;SHT31;56996;48.138;11.538;2023-02-04T07:25:17;4.99;74.84
69731;SHT31;56996;48.138;11.538;2023-02-04T07:27:43;5.03;74.70
69731;SHT31;56996;48.138;11.538;2023-02-04T07:30:10;5.03;74.58
69731;SHT31;56996;48.138;11.538;2023-02-04T07:32:38;5.07;74.68
69731;SHT31;56996;48.138;11.538;2023-02-04T07:35:04;5.10;74.40
69731;SHT31;56996;48.138;11.538;2023-02-04T07:37:31;5.12;74.17
69731;SHT31;56996;48.138;11.538;2023-02-04T07:39:58;5.12;73.91
69731;SHT31;56996;48.138;11.538;2023-02-04T07:42:25;5.14;73.93
69731;SHT31;56996;48.138;11.538;2023-02-04T07:44:57;5.17;73.74
69731;SHT31;56996;48.138;11.538;2023-02-04T07:47:23;5.15;73.35
69731;SHT31;56996;48.138;11.538;2023-02-04T07:49:50;5.15;73.32
69731;SHT31;56996;48.138;11.538;2023-02-04T07:52:16;5.19;73.51
69731;SHT31;56996;48.138;11.538;2023-02-04T07:54:43;5.20;73.34
69731;SHT31;56996;48.138;11.538;2023-02-04T07:57:09;5.24;73.22
69731;SHT31;56996;48.138;11.538;2023-02-04T07:59:36;5.26;73.16
69731;SHT31;56996;48.138;11.538;2023-02-04T08:02:03;5.30;72.98
69731;SHT31;56996;48.138;11.538;2023-02-04T08:04:29;5.30;72.71
69731;SHT31;56996;48.138;11.538;2023-02-04T08:06:56;5.32;72.58
69731;SHT31;56996;48.138;11.538;2023-02-04T08:09:23;5.31;72.26
69731;SHT31;56996;48.138;11.538;2023-02-04T08:11:52;5.30;72.20
69731;SHT31;56996;48.138;11.538;2023-02-04T08:14:19;5.27;71.80
69731;SHT31;56996;48.138;11.538;2023-02-04T08:16:45;5.26;71.57
69731;SHT31;56996;48.138;11.538;2023-02-04T08:19:12;5.24;71.69
69731;SHT31;56996;48.138;11.538;2023-02-04T08:21:44;5.26;71.61
69731;SHT31;56996;48.138;11.538;2023-02-04T08:24:14;5.29;71.59
69731;SHT31;56996;48.138;11.538;2023-02-04T08:26:41;5.32;71.64
69731;SHT31;56996;48.138;11.538;2023-02-04T08:29:09;5.38;71.52
69731;SHT31;56996;48.138;11.538;2023-02-04T08:31:36;5.44;71.52
69731;SHT31;56996;48.138;11.538;2023-02-04T08:34:04;5.47;71.29
69731;SHT31;56996;48.138;11.538;2023-02-04T08:36:32;5.49;71.30
69731;SHT31;56996;48.138;11.538;2023-02-04T08:38:59;5.54;71.07
69731;SHT31;56996;48.138;11.538;2023-02-04T08:41:25;5.57;70.93
69731;SHT31;56996;48.138;11.538;2023-02-04T08:43:52;5.58;71.03
69731;SHT31;56996;48.138;11.538;2023-02-04T08:46:19;5.62;70.66
69731;SHT31;56996;48.138;11.538;2023-02-04T08:48:46;5.58;70.48
69731;SHT31;56996;48.138;11.538;2023-02-04T08:51:13;5.54;70.76
69731;SHT31;56996;48.138;11.538;2023-02-04T08:53:40;5.54;70.89
69731;SHT31;56996;48.138;11.538;2023-02-04T08:56:06;5.55;71.19
69731;SHT31;56996;48.138;11.538;2023-02-04T08:58:34;5.59;70.49
69731;SHT31;56996;48.138;11.538;2023-02-04T09:01:01;5.70;70.49
69731;SHT31;56996;48.138;11.538;2023-02-04T09:03:28;5.81;69.86
69731;SHT31;56996;48.138;11.538;2023-02-04T09:05:55;5.94;69.79
69731;SHT31;56996;48.138;11.538;2023-02-04T09:08:21;6.09;70.24
69731;SHT31;56996;48.138;11.538;2023-02-04T09:10:48;6.22;69.25
69731;SHT31;56996;48.138;11.538;2023-02-04T09:13:14;6.29;68.81
69731;SHT31;56996;48.138;11.538;2023-02-04T09:15:41;6.37;68.73
69731;SHT31;56996;48.138;11.538;2023-02-04T09:18:08;6.39;68.39
69731;SHT31;56996;48.138;11.538;2023-02-04T09:20:47;6.41;68.23
69731;SHT31;56996;48.138;11.538;2023-02-04T09:23:15;6.43;67.78
69731;SHT31;56996;48.138;11.538;2023-02-04T09:25:42;6.47;67.65
69731;SHT31;56996;48.138;11.538;2023-02-04T09:28:11;6.53;67.27
69731;SHT31;56996;48.138;11.538;2023-02-04T09:30:39;6.58;66.52
69731;SHT31;56996;48.138;11.538;2023-02-04T09:33:08;6.58;66.38
69731;SHT31;56996;48.138;11.538;2023-02-04T09:35:36;6.47;66.02
69731;SHT31;56996;48.138;11.538;2023-02-04T09:38:03;6.40;66.80
69731;SHT31;56996;48.138;11.538;2023-02-04T09:40:31;6.39;67.03
69731;SHT31;56996;48.138;11.538;2023-02-04T09:43:02;6.40;66.90
69731;SHT31;56996;48.138;11.538;2023-02-04T09:45:32;6.38;66.69
69731;SHT31;56996;48.138;11.538;2023-02-04T09:48:04;6.42;67.18
69731;SHT31;56996;48.138;11.538;2023-02-04T09:50:34;6.51;67.42
69731;SHT31;56996;48.138;11.538;2023-02-04T09:53:02;6.59;67.06
69731;SHT31;56996;48.138;11.538;2023-02-04T09:55:32;6.69;66.31
69731;SHT31;56996;48.138;11.538;2023-02-04T09:58:13;6.70;65.93
69731;SHT31;56996;48.138;11.538;2023-02-04T10:00:55;6.66;65.91
69731;SHT31;56996;48.138;11.538;2023-02-04T10:03:27;6.64;65.95
69731;SHT31;56996;48.138;11.538;2023-02-04T10:05:54;6.61;66.36
69731;SHT31;56996;48.138;11.538;2023-02-04T10:08:27;6.59;66.43
69731;SHT31;56996;48.138;11.538;2023-02-04T10:10:56;6.58;66.20
69731;SHT31;56996;48.138;11.538;2023-02-04T10:13:28;6.56;66.38
69731;SHT31;56996;48.138;11.538;2023-02-04T10:15:58;6.55;66.60
69731;SHT31;56996;48.138;11.538;2023-02-04T10:18:31;6.57;66.88
69731;SHT31;56996;48.138;11.538;2023-02-04T10:21:03;6.66;66.89
69731;SHT31;56996;48.138;11.538;2023-02-04T10:23:37;6.65;66.17
69731;SHT31;56996;48.138;11.538;2023-02-04T10:26:04;6.59;66.24
69731;SHT31;56996;48.138;11.538;2023-02-04T10:28:34;6.52;66.61
69731;SHT31;56996;48.138;11.538;2023-02-04T10:31:03;6.49;66.53
69731;SHT31;56996;48.138;11.538;2023-02-04T10:33:30;6.50;66.73
69731;SHT31;56996;48.138;11.538;2023-02-04T10:35:57;6.49;66.59
69731;SHT31;56996;48.138;11.538;2023-02-04T10:38:23;6.34;67.31
69731;SHT31;56996;48.138;11.538;2023-02-04T10:41:03;6.27;68.08
69731;SHT31;56996;48.138;11.538;2023-02-04T10:43:31;6.17;68.56
69731;SHT31;56996;48.138;11.538;2023-02-04T10:46:01;6.13;68.94
69731;SHT31;56996;48.138;11.538;2023-02-04T10:48:39;6.12;68.89
69731;SHT31;56996;48.138;11.538;2023-02-04T10:51:08;6.07;69.02
69731;SHT31;56996;48.138;11.538;2023-02-04T10:53:39;6.08;69.08
69731;SHT31;56996;48.138;11.538;2023-02-04T10:56:24;6.11;68.23
69731;SHT31;56996;48.138;11.538;2023-02-04T10:58:51;6.16;67.93
69731;SHT31;56996;48.138;11.538;2023-02-04T11:01:18;6.16;68.25
69731;SHT31;56996;48.138;11.538;2023-02-04T11:03:45;6.22;68.78
69731;SHT31;56996;48.138;11.538;2023-02-04T11:06:17;6.23;68.80
69731;SHT31;56996;48.138;11.538;2023-02-04T11:08:47;6.25;68.55
69731;SHT31;56996;48.138;11.538;2023-02-04T11:11:21;6.37;67.28
69731;SHT31;56996;48.138;11.538;2023-02-04T11:16:25;6.43;66.05
69731;SHT31;56996;48.138;11.538;2023-02-04T11:18:59;6.43;66.26
69731;SHT31;56996;48.138;11.538;2023-02-04T11:26:52;5.98;66.53
69731;SHT31;56996;48.138;11.538;2023-02-04T11:29:43;5.98;66.68
69731;SHT31;56996;48.138;11.538;2023-02-04T11:35:07;5.92;67.61
69731;SHT31;56996;48.138;11.538;2023-02-04T11:37:51;6.07;67.65
69731;SHT31;56996;48.138;11.538;2023-02-04T11:40:22;6.33;66.67
69731;SHT31;56996;48.138;11.538;2023-02-04T11:42:55;6.45;65.41
69731;SHT31;56996;48.138;11.538;2023-02-04T11:45:37;6.45;65.26
69731;SHT31;56996;48.138;11.538;2023-02-04T11:48:11;6.56;65.62
69731;SHT31;56996;48.138;11.538;2023-02-04T11:51:30;6.80;65.31
69731;SHT31;56996;48.138;11.538;2023-02-04T11:53:42;7.07;64.63
69731;SHT31;56996;48.138;11.538;2023-02-04T11:56:18;7.06;63.20
69731;SHT31;56996;48.138;11.538;2023-02-04T11:58:46;6.91;63.40
69731;SHT31;56996;48.138;11.538;2023-02-04T12:01:20;7.00;63.94
69731;SHT31;56996;48.138;11.538;2023-02-04T12:04:00;7.14;63.17
69731;SHT31;56996;48.138;11.538;2023-02-04T12:06:30;6.98;61.96
69731;SHT31;56996;48.138;11.538;2023-02-04T12:11:33;6.48;62.32
69731;SHT31;56996;48.138;11.538;2023-02-04T12:14:08;6.30;63.25
69731;SHT31;56996;48.138;11.538;2023-02-04T12:16:45;6.22;64.17
69731;SHT31;56996;48.138;11.538;2023-02-04T12:19:12;6.26;64.31
69731;SHT31;56996;48.138;11.538;2023-02-04T12:21:40;6.20;64.15
69731;SHT31;56996;48.138;11.538;2023-02-04T12:24:07;6.17;64.26
69731;SHT31;56996;48.138;11.538;2023-02-04T12:26:34;6.18;64.79
69731;SHT31;56996;48.138;11.538;2023-02-04T12:29:01;6.21;63.90
69731;SHT31;56996;48.138;11.538;2023-02-04T12:31:28;6.26;63.98
69731;SHT31;56996;48.138;11.538;2023-02-04T12:33:55;6.43;63.62
69731;SHT31;56996;48.138;11.538;2023-02-04T12:36:23;6.40;63.87
69731;SHT31;56996;48.138;11.538;2023-02-04T12:38:52;6.42;63.37
69731;SHT31;56996;48.138;11.538;2023-02-04T12:41:19;6.45;63.68
69731;SHT31;56996;48.138;11.538;2023-02-04T12:43:46;6.54;63.28
69731;SHT31;56996;48.138;11.538;2023-02-04T12:46:16;6.51;63.06
69731;SHT31;56996;48.138;11.538;2023-02-04T12:48:43;6.43;63.62
69731;SHT31;56996;48.138;11.538;2023-02-04T12:51:10;6.47;63.84
69731;SHT31;56996;48.138;11.538;2023-02-04T12:53:37;6.57;63.31
69731;SHT31;56996;48.138;11.538;2023-02-04T12:56:03;6.55;62.96
69731;SHT31;56996;48.138;11.538;2023-02-04T12:58:30;6.56;62.63
69731;SHT31;56996;48.138;11.538;2023-02-04T13:00:57;6.45;62.60
69731;SHT31;56996;48.138;11.538;2023-02-04T13:03:24;6.49;63.02
69731;SHT31;56996;48.138;11.538;2023-02-04T13:05:51;6.68;62.72
69731;SHT31;56996;48.138;11.538;2023-02-04T13:08:17;6.84;62.44
69731;SHT31;56996;48.138;11.538;2023-02-04T13:10:44;7.01;62.01
69731;SHT31;56996;48.138;11.538;2023-02-04T13:13:15;7.13;61.69
69731;SHT31;56996;48.138;11.538;2023-02-04T13:15:41;7.20;61.58
69731;SHT31;56996;48.138;11.538;2023-02-04T13:18:08;7.28;61.42
69731;SHT31;56996;48.138;11.538;2023-02-04T13:20:35;7.32;61.31
69731;SHT31;56996;48.138;11.538;2023-02-04T13:23:02;7.32;61.28
69731;SHT31;56996;48.138;11.538;2023-02-04T13:25:29;7.30;61.27
69731;SHT31;56996;48.138;11.538;2023-02-04T13:27:56;7.27;61.05
69731;SHT31;56996;48.138;11.538;2023-02-04T13:30:23;7.05;60.37
69731;SHT31;56996;48.138;11.538;2023-02-04T13:32:49;6.70;61.29
69731;SHT31;56996;48.138;11.538;2023-02-04T13:35:16;6.45;62.33
69731;SHT31;56996;48.138;11.538;2023-02-04T13:37:45;6.39;63.01
69731;SHT31;56996;48.138;11.538;2023-02-04T13:40:12;6.36;62.98
69731;SHT31;56996;48.138;11.538;2023-02-04T13:42:39;6.30;63.26
69731;SHT31;56996;48.138;11.538;2023-02-04T13:45:06;6.25;63.24
69731;SHT31;56996;48.138;11.538;2023-02-04T13:47:37;6.14;63.39
69731;SHT31;56996;48.138;11.538;2023-02-04T13:50:04;6.01;63.66
69731;SHT31;56996;48.138;11.538;2023-02-04T13:52:32;5.94;64.03
69731;SHT31;56996;48.138;11.538;2023-02-04T13:54:59;5.87;64.37
69731;SHT31;56996;48.138;11.538;2023-02-04T13:57:26;5.82;64.56
69731;SHT31;56996;48.138;11.538;2023-02-04T13:59:53;5.77;64.65
69731;SHT31;56996;48.138;11.538;2023-02-04T14:02:20;5.71;64.86
69731;SHT31;56996;48.138;11.538;2023-02-04T14:04:48;5.66;64.71
69731;SHT31;56996;48.138;11.538;2023-02-04T14:07:15;5.64;64.71
69731;SHT31;56996;48.138;11.538;2023-02-04T14:09:42;5.60;64.89
69731;SHT31;56996;48.138;11.538;2023-02-04T14:12:08;5.61;65.12
69731;SHT31;56996;48.138;11.538;2023-02-04T14:14:35;5.59;64.86
69731;SHT31;56996;48.138;11.538;2023-02-04T14:17:02;5.64;65.19
69731;SHT31;56996;48.138;11.538;2023-02-04T14:19:28;5.74;64.98
69731;SHT31;56996;48.138;11.538;2023-02-04T14:21:55;5.80;64.53
69731;SHT31;56996;48.138;11.538;2023-02-04T14:24:21;5.87;63.91
69731;SHT31;56996;48.138;11.538;2023-02-04T14:26:48;5.83;62.97
69731;SHT31;56996;48.138;11.538;2023-02-04T14:29:16;5.85;63.09
69731;SHT31;56996;48.138;11.538;2023-02-04T14:31:42;5.88;62.43
69731;SHT31;56996;48.138;11.538;2023-02-04T14:34:09;5.85;62.45
69731;SHT31;56996;48.138;11.538;2023-02-04T14:36:36;5.80;62.95
69731;SHT31;56996;48.138;11.538;2023-02-04T14:39:02;5.78;62.44
69731;SHT31;56996;48.138;11.538;2023-02-04T14:41:29;5.74;62.39
69731;SHT31;56996;48.138;11.538;2023-02-04T14:43:56;5.76;62.61
69731;SHT31;56996;48.138;11.538;2023-02-04T14:46:23;5.79;62.71
69731;SHT31;56996;48.138;11.538;2023-02-04T14:48:50;5.78;62.15
69731;SHT31;56996;48.138;11.538;2023-02-04T14:51:17;5.76;62.28
69731;SHT31;56996;48.138;11.538;2023-02-04T14:53:44;5.74;61.62
69731;SHT31;56996;48.138;11.538;2023-02-04T14:56:14;5.72;62.09
69731;SHT31;56996;48.138;11.538;2023-02-04T14:58:41;5.73;62.63
69731;SHT31;56996;48.138;11.538;2023-02-04T15:01:08;5.76;62.62
69731;SHT31;56996;48.138;11.538;2023-02-04T15:03:35;5.72;62.16
69731;SHT31;56996;48.138;11.538;2023-02-04T15:06:02;5.67;62.47
69731;SHT31;56996;48.138;11.538;2023-02-04T15:08:29;5.62;62.67
69731;SHT31;56996;48.138;11.538;2023-02-04T15:10:58;5.56;62.80
69731;SHT31;56996;48.138;11.538;2023-02-04T15:13:25;5.54;63.30
69731;SHT31;56996;48.138;11.538;2023-02-04T15:15:53;5.55;63.51
69731;SHT31;56996;48.138;11.538;2023-02-04T15:18:20;5.58;63.64
69731;SHT31;56996;48.138;11.538;2023-02-04T15:20:46;5.57;63.12
69731;SHT31;56996;48.138;11.538;2023-02-04T15:23:13;5.57;63.37
69731;SHT31;56996;48.138;11.538;2023-02-04T15:25:40;5.55;63.65
69731;SHT31;56996;48.138;11.538;2023-02-04T15:28:07;5.55;63.82
69731;SHT31;56996;48.138;11.538;2023-02-04T15:30:37;5.55;63.48
69731;SHT31;56996;48.138;11.538;2023-02-04T15:33:04;5.53;63.10
69731;SHT31;56996;48.138;11.538;2023-02-04T15:35:31;5.48;63.04
69731;SHT31;56996;48.138;11.538;2023-02-04T15:37:57;5.42;63.25
69731;SHT31;56996;48.138;11.538;2023-02-04T15:40:24;5.42;63.34
69731;SHT31;56996;48.138;11.538;2023-02-04T15:42:55;5.36;63.48
69731;SHT31;56996;48.138;11.538;2023-02-04T15:45:21;5.32;63.70
69731;SHT31;56996;48.138;11.538;2023-02-04T15:47:48;5.30;63.81
69731;SHT31;56996;48.138;11.538;2023-02-04T15:50:15;5.32;63.88